Time;durP1;ratioP1;P1;durP2;ratioP2;P2;SDS_P1;SDS_P2;PMS_P1;PMS_P2;Temp;Humidity;BMP_temperature;BMP_pressure;BME280_temperature;BME280_humidity;BME280_pressure;Samples;Min_cycle;Max_cycle;Signal;HPM_P1;HPM_P2
2020/12/28 00:00:39;;;;;;;9.73;6.85;;;3.00;99.90;;;;;;5018292;28;20189;-82
2020/12/28 00:03:05;;;;;;;8.55;5.70;;;3.00;99.90;;;;;;5017686;28;20278;-82
2020/12/28 00:05:33;;;;;;;8.85;6.95;;;3.10;99.90;;;;;;5018810;28;20282;-83
2020/12/28 00:07:59;;;;;;;10.35;7.00;;;3.00;99.90;;;;;;5018532;28;20224;-83
2020/12/28 00:10:25;;;;;;;7.60;6.43;;;3.10;99.90;;;;;;5018489;28;20215;-82
2020/12/28 00:12:52;;;;;;;5.32;4.82;;;3.10;99.90;;;;;;5018544;28;20228;-82
2020/12/28 00:15:21;;;;;;;8.68;6.03;;;3.10;99.90;;;;;;5018325;28;20303;-82
2020/12/28 00:17:49;;;;;;;6.03;5.43;;;3.10;99.90;;;;;;5017574;28;20201;-81
2020/12/28 00:20:16;;;;;;;6.32;5.32;;;3.10;99.90;;;;;;5018206;28;20215;-83
2020/12/28 00:22:44;;;;;;;7.15;6.32;;;3.10;99.90;;;;;;5018381;28;20262;-82
2020/12/28 00:25:11;;;;;;;5.68;5.22;;;3.10;99.90;;;;;;5018575;28;20246;-81
2020/12/28 00:27:37;;;;;;;8.75;6.68;;;3.10;99.90;;;;;;5017634;28;20219;-83
2020/12/28 00:30:04;;;;;;;12.23;7.25;;;3.10;99.90;;;;;;5017481;28;20204;-82
2020/12/28 00:32:33;;;;;;;9.05;7.00;;;3.00;99.90;;;;;;5018051;28;20279;-83
2020/12/28 00:34:59;;;;;;;12.73;7.05;;;3.00;99.90;;;;;;5018522;28;20213;-82
2020/12/28 00:37:26;;;;;;;9.10;6.97;;;3.00;99.90;;;;;;5017106;28;20214;-82
2020/12/28 00:39:53;;;;;;;8.98;6.38;;;3.00;99.90;;;;;;5017878;28;20200;-82
2020/12/28 00:42:19;;;;;;;8.27;6.18;;;3.00;99.90;;;;;;5017890;28;20224;-82
2020/12/28 00:44:45;;;;;;;6.65;5.25;;;3.00;99.90;;;;;;5018095;28;20204;-83
2020/12/28 00:47:12;;;;;;;6.72;5.63;;;3.00;99.90;;;;;;5018052;28;20204;-82
2020/12/28 00:49:38;;;;;;;5.82;5.28;;;3.10;99.90;;;;;;5017904;28;20220;-82
2020/12/28 00:52:04;;;;;;;6.82;5.25;;;3.00;99.90;;;;;;5017840;28;20300;-82
2020/12/28 00:54:33;;;;;;;6.13;5.53;;;3.00;99.90;;;;;;5017849;28;20188;-83
2020/12/28 00:57:00;;;;;;;8.43;5.90;;;3.00;99.90;;;;;;5018702;28;20204;-82
2020/12/28 00:59:26;;;;;;;5.03;4.53;;;3.00;99.90;;;;;;5017944;28;20669;-81
2020/12/28 01:01:56;;;;;;;7.65;5.57;;;2.90;99.90;;;;;;5017860;28;20682;-81
2020/12/28 01:04:23;;;;;;;9.50;7.10;;;3.00;99.90;;;;;;5018378;28;20223;-81
2020/12/28 01:06:49;;;;;;;7.38;6.20;;;2.90;99.90;;;;;;5023618;28;20204;-83
2020/12/28 01:09:17;;;;;;;7.60;5.90;;;2.90;99.90;;;;;;5028157;28;20286;-82
2020/12/28 01:11:43;;;;;;;7.32;5.60;;;2.80;99.90;;;;;;5028887;28;20239;-82
2020/12/28 01:14:11;;;;;;;13.40;6.50;;;2.90;99.90;;;;;;5028903;28;20315;-82
2020/12/28 01:16:43;;;;;;;9.05;6.85;;;2.80;99.90;;;;;;5029653;28;20211;-82
2020/12/28 01:19:09;;;;;;;6.30;5.70;;;2.80;99.90;;;;;;5026653;28;20211;-83
2020/12/28 01:21:36;;;;;;;9.45;6.10;;;2.90;99.90;;;;;;5019850;28;20188;-83
2020/12/28 01:24:02;;;;;;;6.40;5.60;;;2.90;99.90;;;;;;5020078;28;20756;-82
2020/12/28 01:26:31;;;;;;;7.18;5.63;;;2.80;99.90;;;;;;5021032;28;20588;-82
2020/12/28 01:29:04;;;;;;;11.82;6.45;;;2.90;99.90;;;;;;5033650;28;20216;-82
2020/12/28 01:31:31;;;;;;;8.98;6.15;;;2.90;99.90;;;;;;5038614;28;20244;-81
2020/12/28 01:33:57;;;;;;;9.20;6.57;;;2.90;99.90;;;;;;5032462;28;20283;-81
2020/12/28 01:36:23;;;;;;;10.20;6.65;;;2.90;99.90;;;;;;5022538;28;20206;-81
2020/12/28 01:38:51;;;;;;;9.27;5.80;;;2.90;99.90;;;;;;5029458;28;20188;-81
2020/12/28 01:41:18;;;;;;;8.50;5.82;;;2.90;99.90;;;;;;5038311;28;20232;-81
2020/12/28 01:43:44;;;;;;;14.52;7.07;;;2.90;99.90;;;;;;5038179;28;20234;-81
2020/12/28 01:46:12;;;;;;;10.88;6.82;;;2.90;99.90;;;;;;5037909;28;20241;-81
2020/12/28 01:48:40;;;;;;;9.70;6.20;;;2.90;99.90;;;;;;5038700;28;20212;-81
2020/12/28 01:51:07;;;;;;;9.88;6.25;;;2.90;99.90;;;;;;5041121;28;20253;-82
2020/12/28 01:53:33;;;;;;;9.80;6.00;;;3.00;99.90;;;;;;5041612;28;20284;-81
2020/12/28 01:56:03;;;;;;;8.50;6.80;;;2.90;99.90;;;;;;5041730;28;20252;-81
2020/12/28 01:58:30;;;;;;;6.78;6.07;;;2.90;99.90;;;;;;5041411;28;20208;-81
2020/12/28 02:00:57;;;;;;;7.75;6.03;;;2.90;99.90;;;;;;5041364;28;20200;-82
2020/12/28 02:03:25;;;;;;;7.13;5.63;;;2.90;99.90;;;;;;5039536;28;20255;-81
2020/12/28 02:05:53;;;;;;;7.75;5.82;;;2.90;99.90;;;;;;5041459;28;20218;-81
2020/12/28 02:08:19;;;;;;;7.45;6.00;;;3.00;99.90;;;;;;5040489;28;20200;-81
2020/12/28 02:10:46;;;;;;;7.22;6.10;;;2.80;99.90;;;;;;5040556;28;20231;-81
2020/12/28 02:13:12;;;;;;;8.45;6.60;;;2.90;99.90;;;;;;5024801;28;20314;-81
2020/12/28 02:15:39;;;;;;;9.23;6.53;;;2.90;99.90;;;;;;5023618;28;20339;-81
2020/12/28 02:18:06;;;;;;;7.45;6.05;;;2.80;99.90;;;;;;5025385;28;20270;-81
2020/12/28 02:20:32;;;;;;;7.75;6.60;;;2.90;99.90;;;;;;5024650;28;20287;-82
2020/12/28 02:22:59;;;;;;;6.97;5.90;;;2.80;99.90;;;;;;5055503;22;20254;-83
2020/12/28 02:25:25;;;;;;;9.00;6.68;;;2.80;99.90;;;;;;5035219;28;20272;-82
2020/12/28 02:27:52;;;;;;;6.00;5.47;;;2.80;99.90;;;;;;5036791;28;20216;-82
2020/12/28 02:30:18;;;;;;;9.43;6.90;;;2.80;99.90;;;;;;5036580;28;20208;-82
2020/12/28 02:32:44;;;;;;;7.50;6.55;;;2.90;99.90;;;;;;5034266;28;20291;-84
2020/12/28 02:35:11;;;;;;;8.82;6.15;;;2.90;99.90;;;;;;5028485;28;20283;-84
2020/12/28 02:37:37;;;;;;;7.38;6.35;;;2.80;99.90;;;;;;5029359;28;20212;-84
2020/12/28 02:40:04;;;;;;;11.35;6.03;;;2.90;99.90;;;;;;5029131;28;20214;-83
2020/12/28 02:42:31;;;;;;;7.95;6.32;;;3.00;99.90;;;;;;5027859;28;20277;-83
2020/12/28 02:44:57;;;;;;;8.43;6.57;;;2.90;99.90;;;;;;5026966;28;20291;-83
2020/12/28 02:47:23;;;;;;;7.22;6.50;;;2.80;99.90;;;;;;5026278;28;20208;-84
2020/12/28 02:49:50;;;;;;;7.03;6.22;;;2.70;99.90;;;;;;5026306;28;20368;-84
2020/12/28 02:52:16;;;;;;;7.57;6.05;;;2.80;99.90;;;;;;5027570;28;20292;-83
2020/12/28 02:54:42;;;;;;;8.38;5.80;;;2.80;99.90;;;;;;5029357;28;20231;-83
2020/12/28 02:57:09;;;;;;;8.50;5.80;;;2.80;99.90;;;;;;5035019;28;20228;-84
2020/12/28 02:59:36;;;;;;;6.75;5.95;;;2.90;99.90;;;;;;5033760;28;20197;-83
2020/12/28 03:02:02;;;;;;;7.30;5.80;;;2.80;99.90;;;;;;5028745;28;20756;-83
2020/12/28 03:04:29;;;;;;;7.63;6.45;;;2.70;99.90;;;;;;5026556;28;20235;-83
2020/12/28 03:06:55;;;;;;;7.03;6.25;;;2.80;99.90;;;;;;5026688;28;20242;-83
2020/12/28 03:09:21;;;;;;;7.72;6.32;;;2.80;99.90;;;;;;5026187;28;20216;-83
2020/12/28 03:11:47;;;;;;;10.40;8.13;;;2.70;99.90;;;;;;5024883;28;20208;-83
2020/12/28 03:14:15;;;;;;;9.15;5.85;;;2.80;99.90;;;;;;5025385;28;20315;-83
2020/12/28 03:16:41;;;;;;;7.45;6.15;;;2.80;99.90;;;;;;5025407;28;20220;-84
2020/12/28 03:19:07;;;;;;;8.18;6.00;;;2.80;99.90;;;;;;5024983;28;20204;-82
2020/12/28 03:21:34;;;;;;;10.23;6.28;;;2.90;99.90;;;;;;5026102;28;20633;-84
2020/12/28 03:24:00;;;;;;;9.75;7.95;;;2.80;99.90;;;;;;5024977;28;20851;-84
2020/12/28 03:26:26;;;;;;;12.30;7.60;;;2.80;99.90;;;;;;5025151;28;20215;-84
2020/12/28 03:28:52;;;;;;;8.23;7.43;;;2.80;99.90;;;;;;5025289;28;20224;-84
2020/12/28 03:31:20;;;;;;;10.07;6.88;;;2.80;99.90;;;;;;5024946;28;20205;-84
2020/12/28 03:33:46;;;;;;;9.13;6.65;;;2.70;99.90;;;;;;5024236;28;20295;-84
2020/12/28 03:36:12;;;;;;;11.00;7.60;;;2.70;99.90;;;;;;5024108;28;20208;-84
2020/12/28 03:38:38;;;;;;;9.65;7.53;;;2.70;99.90;;;;;;5029492;28;20263;-84
2020/12/28 03:41:05;;;;;;;11.20;7.80;;;2.70;99.90;;;;;;5026674;28;20204;-84
2020/12/28 03:43:31;;;;;;;8.40;7.25;;;2.70;99.90;;;;;;5026568;28;20312;-85
2020/12/28 03:45:58;;;;;;;8.55;7.45;;;2.70;99.90;;;;;;5027544;28;20620;-84
2020/12/28 03:48:25;;;;;;;7.90;7.10;;;2.70;99.90;;;;;;5026434;28;20719;-84
2020/12/28 03:50:51;;;;;;;11.90;8.15;;;2.70;99.90;;;;;;5025737;28;20299;-84
2020/12/28 03:53:17;;;;;;;10.10;8.30;;;2.70;99.90;;;;;;5026774;28;20266;-84
2020/12/28 03:55:44;;;;;;;10.80;8.00;;;2.80;99.90;;;;;;5025502;28;20204;-85
2020/12/28 03:58:10;;;;;;;8.65;6.90;;;2.80;99.90;;;;;;5026573;28;20231;-84
2020/12/28 04:00:36;;;;;;;10.32;7.07;;;2.70;99.90;;;;;;5026609;28;20272;-85
2020/12/28 04:03:03;;;;;;;13.88;8.20;;;2.60;99.90;;;;;;5026817;28;20619;-84
2020/12/28 04:05:30;;;;;;;10.38;7.30;;;2.50;99.90;;;;;;5025434;28;20615;-85
2020/12/28 04:07:56;;;;;;;15.85;7.47;;;2.50;99.90;;;;;;5025605;28;20272;-84
2020/12/28 04:10:22;;;;;;;10.48;6.45;;;2.50;99.90;;;;;;5025606;28;20208;-85
2020/12/28 04:12:49;;;;;;;11.38;7.18;;;2.40;99.90;;;;;;5025515;28;20256;-85
2020/12/28 04:15:15;;;;;;;10.20;7.93;;;2.40;99.90;;;;;;5024388;28;20227;-83
2020/12/28 04:17:41;;;;;;;7.47;6.25;;;2.40;99.90;;;;;;5031129;28;20263;-84
2020/12/28 04:20:08;;;;;;;7.47;6.68;;;2.40;99.90;;;;;;5030348;28;20256;-84
2020/12/28 04:22:35;;;;;;;8.25;6.20;;;2.40;99.90;;;;;;5035750;28;20227;-84
2020/12/28 04:25:01;;;;;;;7.40;6.63;;;2.40;99.90;;;;;;5027573;28;20199;-81
2020/12/28 04:27:27;;;;;;;9.65;6.50;;;2.40;99.90;;;;;;5026497;28;20208;-82
2020/12/28 04:29:53;;;;;;;12.20;6.38;;;2.40;99.90;;;;;;5031096;28;20224;-83
2020/12/28 04:32:20;;;;;;;8.10;6.47;;;2.50;99.90;;;;;;5036087;28;20201;-82
2020/12/28 04:34:46;;;;;;;7.47;6.72;;;2.60;99.90;;;;;;5026385;28;20301;-82
2020/12/28 04:37:12;;;;;;;7.70;6.75;;;2.70;99.90;;;;;;5025762;28;20267;-82
2020/12/28 04:39:40;;;;;;;7.38;6.43;;;2.60;99.90;;;;;;5024367;28;20254;-82
2020/12/28 04:42:06;;;;;;;8.40;6.90;;;2.50;99.90;;;;;;5023361;28;20255;-83
2020/12/28 04:44:32;;;;;;;7.45;6.70;;;2.50;99.90;;;;;;5023507;28;20769;-84
2020/12/28 04:46:59;;;;;;;8.13;7.18;;;2.60;99.90;;;;;;5022909;28;20220;-82
2020/12/28 04:49:25;;;;;;;10.85;7.75;;;2.60;99.90;;;;;;5022833;28;20224;-82
2020/12/28 04:51:53;;;;;;;7.50;6.50;;;2.60;99.90;;;;;;5022695;28;20212;-83
2020/12/28 04:54:20;;;;;;;9.25;7.28;;;2.70;99.90;;;;;;5021335;28;20939;-82
2020/12/28 04:56:47;;;;;;;9.23;7.15;;;2.70;99.90;;;;;;5028940;28;20200;-83
2020/12/28 04:59:13;;;;;;;7.72;6.93;;;2.80;99.90;;;;;;5027078;28;20241;-84
2020/12/28 05:01:51;;;;;;;8.10;6.70;;;2.80;99.90;;;;;;5027818;28;20670;-84
2020/12/28 05:04:18;;;;;;;9.45;6.85;;;2.70;99.90;;;;;;5023846;28;20234;-84
2020/12/28 05:06:55;;;;;;;10.00;7.55;;;2.80;99.90;;;;;;5022437;28;20243;-84
2020/12/28 05:09:21;;;;;;;7.22;6.45;;;2.80;99.90;;;;;;5023369;28;20268;-84
2020/12/28 05:11:52;;;;;;;7.30;6.60;;;2.80;99.90;;;;;;5023520;28;20351;-83
2020/12/28 05:14:19;;;;;;;9.35;6.95;;;2.90;99.90;;;;;;5025042;28;20224;-83
2020/12/28 05:16:45;;;;;;;7.97;6.78;;;2.90;99.90;;;;;;5026344;28;20204;-84
2020/12/28 05:19:12;;;;;;;7.85;7.05;;;2.90;99.90;;;;;;5021949;28;20232;-84
2020/12/28 05:21:38;;;;;;;8.93;6.88;;;3.00;99.90;;;;;;5023103;28;20606;-84
2020/12/28 05:24:11;;;;;;;7.18;6.47;;;3.10;99.90;;;;;;5036089;28;20295;-84
2020/12/28 05:26:41;;;;;;;9.63;7.78;;;3.00;99.90;;;;;;5029319;28;20247;-84
2020/12/28 05:29:12;;;;;;;9.55;8.00;;;3.00;99.90;;;;;;5028604;28;20220;-84
2020/12/28 05:31:39;;;;;;;8.00;7.20;;;3.00;99.90;;;;;;5028462;28;20445;-85
2020/12/28 05:34:11;;;;;;;8.30;7.10;;;3.00;99.90;;;;;;5028847;28;20459;-85
2020/12/28 05:36:38;;;;;;;10.18;7.45;;;3.10;99.90;;;;;;5028090;28;20279;-85
2020/12/28 05:39:05;;;;;;;8.15;7.35;;;3.10;99.90;;;;;;5027828;28;20651;-84
2020/12/28 05:41:31;;;;;;;8.65;7.07;;;3.00;99.90;;;;;;5027585;28;20210;-84
2020/12/28 05:44:09;;;;;;;9.43;8.45;;;2.90;99.90;;;;;;5027988;28;20247;-84
2020/12/28 05:46:36;;;;;;;10.55;9.23;;;3.00;99.90;;;;;;5027670;28;20188;-84
2020/12/28 05:49:06;;;;;;;9.43;7.75;;;3.00;99.90;;;;;;5028035;28;20227;-84
2020/12/28 05:51:34;;;;;;;9.27;7.70;;;3.10;99.90;;;;;;5028104;28;20641;-84
2020/12/28 05:54:08;;;;;;;9.85;8.57;;;3.10;99.90;;;;;;5027827;28;20224;-84
2020/12/28 05:56:35;;;;;;;9.55;8.60;;;3.20;99.90;;;;;;5028157;28;20200;-84
2020/12/28 05:59:03;;;;;;;9.25;7.90;;;3.10;99.90;;;;;;5027950;28;20550;-84
2020/12/28 06:01:38;;;;;;;8.52;7.63;;;3.10;99.90;;;;;;5028584;28;20231;-84
2020/12/28 06:04:06;;;;;;;8.55;7.65;;;3.10;99.90;;;;;;5027723;28;20247;-84
2020/12/28 06:06:33;;;;;;;11.05;8.02;;;3.10;99.90;;;;;;5030217;28;20201;-84
2020/12/28 06:09:00;;;;;;;8.80;7.90;;;3.00;99.90;;;;;;5027812;28;20311;-84
2020/12/28 06:11:27;;;;;;;10.30;9.07;;;3.10;99.90;;;;;;5028376;28;20237;-84
2020/12/28 06:13:53;;;;;;;8.15;7.35;;;3.10;99.90;;;;;;5033124;28;20324;-82
2020/12/28 06:16:23;;;;;;;9.77;8.20;;;3.10;99.90;;;;;;5038439;28;20231;-81
2020/12/28 06:18:54;;;;;;;9.02;7.97;;;3.00;99.90;;;;;;5039462;28;20201;-82
2020/12/28 06:21:21;;;;;;;10.00;8.13;;;2.90;99.90;;;;;;5038113;28;20258;-84
2020/12/28 06:23:49;;;;;;;7.75;6.95;;;2.80;99.90;;;;;;5028654;28;20302;-84
2020/12/28 06:26:19;;;;;;;9.27;7.97;;;2.80;99.90;;;;;;5028509;28;20208;-84
2020/12/28 06:28:45;;;;;;;9.77;8.00;;;2.90;99.90;;;;;;5027574;28;20220;-85
2020/12/28 06:31:11;;;;;;;8.10;7.35;;;2.90;99.90;;;;;;5033958;28;20648;-84
2020/12/28 06:33:47;;;;;;;7.75;6.97;;;2.80;99.90;;;;;;5028742;28;20220;-85
2020/12/28 06:36:15;;;;;;;13.15;7.65;;;2.70;99.90;;;;;;5026037;28;20216;-85
2020/12/28 06:38:42;;;;;;;10.13;8.70;;;2.50;99.90;;;;;;5026119;28;20267;-85
2020/12/28 06:41:08;;;;;;;9.10;7.95;;;2.50;99.90;;;;;;5026585;28;20246;-84
2020/12/28 06:43:40;;;;;;;8.95;8.10;;;2.40;99.90;;;;;;5027611;28;20282;-85
2020/12/28 06:46:06;;;;;;;10.65;8.43;;;2.40;99.90;;;;;;5026782;28;20212;-84
2020/12/28 06:48:33;;;;;;;11.02;8.63;;;2.40;99.90;;;;;;5027560;28;20238;-84
2020/12/28 06:51:06;;;;;;;14.63;8.65;;;2.40;99.90;;;;;;5026087;28;20262;-84
2020/12/28 06:53:34;;;;;;;10.27;9.18;;;2.30;99.90;;;;;;5024235;28;20259;-84
2020/12/28 06:56:07;;;;;;;14.50;10.70;;;2.30;99.90;;;;;;5025013;28;20212;-84
2020/12/28 06:58:34;;;;;;;11.50;8.75;;;2.30;99.90;;;;;;5025570;28;20745;-84
2020/12/28 07:01:03;;;;;;;10.50;9.38;;;2.30;99.90;;;;;;5024911;28;20447;-84
2020/12/28 07:03:29;;;;;;;13.48;9.77;;;2.20;99.90;;;;;;5028798;28;20263;-84
2020/12/28 07:06:00;;;;;;;10.32;8.48;;;2.20;99.90;;;;;;5029531;28;20435;-84
2020/12/28 07:08:28;;;;;;;11.32;9.10;;;2.20;99.90;;;;;;5027980;28;20231;-83
2020/12/28 07:11:00;;;;;;;10.10;8.32;;;2.20;99.90;;;;;;5028769;28;20259;-84
2020/12/28 07:13:27;;;;;;;9.80;8.85;;;2.20;99.90;;;;;;5025715;28;20225;-83
2020/12/28 07:16:01;;;;;;;11.93;9.40;;;2.20;99.90;;;;;;5026634;28;20231;-84
2020/12/28 07:18:29;;;;;;;12.68;9.75;;;2.20;99.90;;;;;;5030140;28;20248;-85
2020/12/28 07:20:56;;;;;;;13.50;9.05;;;2.20;99.90;;;;;;5033381;28;20219;-83
2020/12/28 07:23:25;;;;;;;11.38;8.80;;;2.20;99.90;;;;;;5032864;28;20240;-84
2020/12/28 07:26:05;;;;;;;11.48;9.13;;;2.30;99.90;;;;;;5026235;28;20212;-84
2020/12/28 07:28:32;;;;;;;11.80;9.23;;;2.20;99.90;;;;;;5025303;28;20350;-84
2020/12/28 07:31:02;;;;;;;10.93;9.10;;;2.30;99.90;;;;;;5025212;28;20439;-83
2020/12/28 07:33:29;;;;;;;10.77;9.02;;;2.30;99.90;;;;;;5023899;28;20659;-85
2020/12/28 07:36:04;;;;;;;12.10;9.50;;;2.30;99.90;;;;;;5024137;28;20273;-87
2020/12/28 07:38:31;;;;;;;14.73;9.98;;;2.20;99.90;;;;;;5025135;28;20499;-85
2020/12/28 07:40:57;;;;;;;12.40;10.13;;;2.20;99.90;;;;;;5025382;28;20204;-84
2020/12/28 07:43:25;;;;;;;14.85;10.15;;;2.20;99.90;;;;;;5025977;28;20232;-84
2020/12/28 07:45:52;;;;;;;17.23;10.40;;;2.30;99.90;;;;;;5031616;28;20316;-83
2020/12/28 07:48:23;;;;;;;13.07;11.18;;;2.30;99.90;;;;;;5036838;28;20236;-83
2020/12/28 07:50:53;;;;;;;14.50;11.10;;;2.30;99.90;;;;;;5036449;28;20499;-83
2020/12/28 07:53:26;;;;;;;12.20;10.38;;;2.30;99.90;;;;;;5036741;28;20232;-84
2020/12/28 07:55:59;;;;;;;9.88;8.93;;;2.40;99.90;;;;;;5024643;28;20212;-84
2020/12/28 07:58:42;;;;;;;11.73;9.85;;;2.40;99.90;;;;;;5024382;28;20622;-85
2020/12/28 08:01:13;;;;;;;10.32;9.30;;;2.40;99.90;;;;;;5023776;28;20333;-84
2020/12/28 08:03:45;;;;;;;11.23;9.60;;;2.40;99.90;;;;;;5024572;28;20451;-84
2020/12/28 08:06:14;;;;;;;13.38;10.75;;;2.50;99.90;;;;;;5030477;28;20199;-84
2020/12/28 08:08:41;;;;;;;14.35;9.95;;;2.60;99.90;;;;;;5033025;28;20232;-84
2020/12/28 08:11:07;;;;;;;9.45;8.48;;;2.70;99.90;;;;;;5025940;28;20204;-84
2020/12/28 08:13:36;;;;;;;10.95;8.93;;;2.70;99.90;;;;;;5027011;28;20294;-85
2020/12/28 08:16:13;;;;;;;12.05;9.63;;;2.70;99.90;;;;;;5026792;28;20270;-85
2020/12/28 08:18:47;;;;;;;10.55;8.55;;;2.70;99.90;;;;;;5025005;28;20184;-85
2020/12/28 08:21:13;;;;;;;11.45;9.13;;;2.80;99.90;;;;;;5026065;28;20335;-84
2020/12/28 08:23:40;;;;;;;11.65;9.63;;;2.80;99.90;;;;;;5036038;22;20230;-82
2020/12/28 08:26:22;;;;;;;11.35;9.20;;;2.90;99.90;;;;;;5017117;28;20243;-81
2020/12/28 08:28:53;;;;;;;11.52;8.75;;;3.00;99.90;;;;;;5016754;28;20228;-82
2020/12/28 08:31:28;;;;;;;12.68;8.27;;;3.00;99.90;;;;;;5016363;28;20336;-81
2020/12/28 08:34:03;;;;;;;14.48;11.50;;;3.10;99.90;;;;;;5016233;28;20259;-83
2020/12/28 08:36:30;;;;;;;12.85;11.18;;;3.10;99.90;;;;;;5019208;28;20258;-82
2020/12/28 08:38:58;;;;;;;15.95;11.40;;;3.10;99.90;;;;;;5016291;28;20246;-82
2020/12/28 08:41:25;;;;;;;13.35;11.02;;;3.10;99.90;;;;;;5015773;28;20730;-82
2020/12/28 08:43:59;;;;;;;14.18;11.93;;;3.10;99.90;;;;;;5017104;28;20228;-80
2020/12/28 08:46:26;;;;;;;11.30;9.80;;;3.10;99.90;;;;;;5016934;28;20275;-80
2020/12/28 08:48:52;;;;;;;10.25;8.50;;;3.10;99.90;;;;;;5016150;28;20224;-82
2020/12/28 08:51:20;;;;;;;9.65;8.65;;;3.30;99.90;;;;;;5016725;28;20200;-81
2020/12/28 08:53:47;;;;;;;11.40;8.93;;;3.20;99.90;;;;;;5022603;28;20228;-81
2020/12/28 08:56:14;;;;;;;10.13;8.27;;;3.30;99.90;;;;;;5023243;28;20200;-80
2020/12/28 08:58:45;;;;;;;15.70;11.88;;;3.30;99.90;;;;;;5015851;28;20205;-81
2020/12/28 09:01:15;;;;;;;11.38;9.20;;;3.40;99.90;;;;;;5015677;28;20200;-81
2020/12/28 09:03:41;;;;;;;9.27;7.38;;;3.40;99.90;;;;;;5019466;28;20224;-81
2020/12/28 09:06:08;;;;;;;10.07;8.90;;;3.40;99.90;;;;;;5022380;28;20235;-81
2020/12/28 09:08:34;;;;;;;9.57;8.60;;;3.40;99.90;;;;;;5017471;28;20208;-81
2020/12/28 09:11:30;;;;;;;8.00;7.20;;;3.50;99.90;;;;;;5017927;28;20211;-82
2020/12/28 09:14:04;;;;;;;8.93;8.02;;;3.60;99.90;;;;;;5016368;28;20228;-82
2020/12/28 09:16:34;;;;;;;8.00;7.13;;;3.60;99.90;;;;;;5019289;28;20193;-81
2020/12/28 09:19:00;;;;;;;9.82;7.28;;;3.70;99.90;;;;;;5018383;28;20200;-81
2020/12/28 09:21:27;;;;;;;8.40;7.60;;;3.60;99.90;;;;;;5019215;28;20212;-81
2020/12/28 09:23:53;;;;;;;9.70;8.55;;;3.60;99.90;;;;;;5018436;28;20319;-82
2020/12/28 09:26:20;;;;;;;9.55;8.45;;;3.60;99.90;;;;;;5016372;28;20338;-81
2020/12/28 09:28:49;;;;;;;9.10;8.20;;;3.60;99.90;;;;;;5017996;28;20231;-82
2020/12/28 09:31:18;;;;;;;9.02;7.85;;;3.80;99.90;;;;;;5017729;28;20711;-82
2020/12/28 09:33:45;;;;;;;10.35;7.70;;;3.80;99.90;;;;;;5016207;28;20234;-82
2020/12/28 09:36:18;;;;;;;8.85;7.82;;;3.80;99.90;;;;;;5014814;28;20231;-82
2020/12/28 09:38:44;;;;;;;9.23;7.47;;;3.70;99.90;;;;;;5014415;28;20271;-82
2020/12/28 09:41:11;;;;;;;9.40;7.63;;;3.70;99.90;;;;;;5016269;28;20700;-82
2020/12/28 09:43:39;;;;;;;8.73;7.03;;;3.80;99.90;;;;;;5015508;28;20228;-82
2020/12/28 09:46:05;;;;;;;10.43;7.63;;;3.80;99.90;;;;;;5017313;28;20560;-81
2020/12/28 09:48:37;;;;;;;9.38;7.47;;;3.90;99.90;;;;;;5016326;28;20239;-82
2020/12/28 09:51:08;;;;;;;8.95;7.32;;;3.90;99.90;;;;;;5016494;28;20275;-82
2020/12/28 09:53:34;;;;;;;9.73;7.72;;;3.80;99.90;;;;;;5016069;28;20230;-82
2020/12/28 09:56:02;;;;;;;8.68;6.93;;;3.90;99.90;;;;;;5015995;28;20204;-81
2020/12/28 09:58:31;;;;;;;8.07;7.22;;;3.90;99.90;;;;;;5016609;28;20283;-81
2020/12/28 10:01:00;;;;;;;6.93;6.22;;;3.80;99.90;;;;;;5015937;28;20332;-81
2020/12/28 10:03:32;;;;;;;7.50;6.47;;;4.00;99.90;;;;;;5016501;28;20311;-81
2020/12/28 10:05:59;;;;;;;9.70;6.47;;;4.00;99.90;;;;;;5016396;28;20363;-81
2020/12/28 10:08:26;;;;;;;11.10;6.28;;;4.00;99.90;;;;;;5015963;28;20256;-81
2020/12/28 10:10:52;;;;;;;8.05;7.25;;;4.00;99.90;;;;;;5019699;28;20578;-81
2020/12/28 10:13:19;;;;;;;7.68;6.97;;;4.10;99.90;;;;;;5019675;28;20229;-81
2020/12/28 10:15:45;;;;;;;8.73;7.18;;;4.10;99.90;;;;;;5020158;28;20231;-81
2020/12/28 10:21:38;;;;;;;7.82;6.65;;;4.30;99.90;;;;;;5008285;28;20208;-82
2020/12/28 10:24:06;;;;;;;8.63;7.05;;;4.30;99.90;;;;;;5019543;28;20228;-81
2020/12/28 10:26:38;;;;;;;6.85;6.25;;;4.30;99.90;;;;;;5018936;28;20259;-82
2020/12/28 10:29:06;;;;;;;9.63;7.35;;;4.20;99.90;;;;;;5017243;28;20220;-82
2020/12/28 10:31:38;;;;;;;9.02;8.07;;;4.20;99.90;;;;;;5016563;28;20204;-81
2020/12/28 10:34:05;;;;;;;9.32;6.93;;;4.30;99.90;;;;;;5016493;28;20252;-81
2020/12/28 10:36:31;;;;;;;8.27;6.18;;;4.40;99.90;;;;;;5016574;28;20645;-81
2020/12/28 10:38:58;;;;;;;8.00;7.07;;;4.40;99.90;;;;;;5016674;28;20236;-81
2020/12/28 10:41:30;;;;;;;8.10;7.18;;;4.30;99.90;;;;;;5017026;28;20204;-82
2020/12/28 10:43:57;;;;;;;7.07;6.35;;;4.40;99.90;;;;;;5018761;28;20232;-82
2020/12/28 10:46:27;;;;;;;11.50;5.88;;;4.40;99.90;;;;;;5019103;28;20200;-81
2020/12/28 10:48:54;;;;;;;10.32;6.38;;;4.40;99.90;;;;;;5018762;28;20219;-80
2020/12/28 10:51:20;;;;;;;11.45;6.57;;;4.50;99.90;;;;;;5018517;28;20210;-81
2020/12/28 10:53:47;;;;;;;8.98;8.18;;;4.50;99.90;;;;;;5019047;28;20408;-82
2020/12/28 10:56:21;;;;;;;8.27;7.15;;;4.50;99.90;;;;;;5019298;28;20208;-81
2020/12/28 10:58:48;;;;;;;7.82;6.65;;;4.50;99.90;;;;;;5018794;28;20277;-80
2020/12/28 11:01:14;;;;;;;5.95;5.38;;;4.50;99.90;;;;;;5018407;28;20192;-81
2020/12/28 11:03:41;;;;;;;6.50;5.88;;;4.50;99.90;;;;;;5018154;28;20311;-82
2020/12/28 11:06:07;;;;;;;9.27;6.75;;;4.60;99.90;;;;;;5018347;28;20220;-81
2020/12/28 11:08:37;;;;;;;8.80;7.15;;;4.60;99.90;;;;;;5018635;28;20627;-81
2020/12/28 11:11:06;;;;;;;6.63;6.00;;;4.60;99.90;;;;;;5018512;28;20685;-81
2020/12/28 11:13:32;;;;;;;8.00;7.20;;;4.60;99.90;;;;;;5017872;28;20315;-82
2020/12/28 11:16:00;;;;;;;7.38;6.53;;;4.60;99.90;;;;;;5019608;28;20211;-81
2020/12/28 11:18:30;;;;;;;7.88;6.30;;;4.60;99.90;;;;;;5018882;28;20292;-81
2020/12/28 11:20:59;;;;;;;8.43;6.93;;;4.60;99.90;;;;;;5017787;28;20189;-80
2020/12/28 11:23:57;;;;;;;7.00;6.00;;;4.60;99.90;;;;;;5017740;28;20232;-81
2020/12/28 11:26:16;;;;;;;7.72;6.88;;;4.70;99.90;;;;;;5017671;28;20739;-81
2020/12/28 11:28:42;;;;;;;7.65;6.60;;;4.60;99.90;;;;;;5017879;28;20291;-81
2020/12/28 11:31:13;;;;;;;7.50;6.60;;;4.70;99.90;;;;;;5018782;28;20284;-81
2020/12/28 11:33:39;;;;;;;7.82;7.13;;;4.70;99.90;;;;;;5018309;28;20306;-81
2020/12/28 11:36:06;;;;;;;12.88;9.30;;;4.70;99.90;;;;;;5018481;28;20570;-81
2020/12/28 11:38:35;;;;;;;7.45;6.72;;;4.60;99.90;;;;;;5018610;28;20204;-82
2020/12/28 11:41:02;;;;;;;10.18;7.20;;;4.60;99.90;;;;;;5020799;28;20248;-81
2020/12/28 11:43:45;;;;;;;7.53;6.72;;;4.70;99.90;;;;;;5018557;28;20224;-81
2020/12/28 11:46:21;;;;;;;10.27;8.00;;;4.80;99.90;;;;;;5019413;28;20279;-81
2020/12/28 11:48:50;;;;;;;9.80;7.70;;;4.80;99.90;;;;;;5018530;28;20189;-81
2020/12/28 11:51:16;;;;;;;8.80;7.85;;;4.80;99.90;;;;;;5018992;28;20270;-80
2020/12/28 11:53:43;;;;;;;8.30;7.10;;;4.80;99.90;;;;;;5018822;28;20283;-81
2020/12/28 11:56:19;;;;;;;9.38;6.78;;;4.80;99.90;;;;;;5018787;28;20227;-81
2020/12/28 11:58:50;;;;;;;14.57;5.97;;;4.80;99.90;;;;;;5021378;28;20211;-81
2020/12/28 12:01:33;;;;;;;9.95;7.18;;;4.90;99.90;;;;;;5026023;28;20203;-80
2020/12/28 12:05:02;;;;;;;;;;;;;;;;;;;;;
2020/12/28 12:07:42;;;;;;;18.27;6.53;;;4.80;99.90;;;;;;5022194;28;20222;-81
2020/12/28 12:10:33;;;;;;;7.13;6.07;;;4.80;99.90;;;;;;5024410;28;20227;-81
2020/12/28 12:13:04;;;;;;;5.80;5.30;;;4.80;99.90;;;;;;5007745;28;20255;-81
2020/12/28 12:15:48;;;;;;;7.30;6.47;;;4.80;99.90;;;;;;5019964;28;20272;-81
2020/12/28 12:18:19;;;;;;;6.97;6.07;;;4.80;99.90;;;;;;5019598;28;20201;-82
2020/12/28 12:20:46;;;;;;;8.57;6.93;;;4.80;99.90;;;;;;5019356;28;20193;-81
2020/12/28 12:23:20;;;;;;;7.38;6.63;;;4.90;99.90;;;;;;5021754;28;20446;-81
2020/12/28 12:25:52;;;;;;;8.18;6.45;;;4.90;99.90;;;;;;5022758;28;20209;-81
2020/12/28 12:28:39;;;;;;;7.38;6.60;;;4.90;99.90;;;;;;5018150;28;20249;-82
2020/12/28 12:31:22;;;;;;;7.40;5.97;;;4.90;99.90;;;;;;5017798;28;20291;-82
2020/12/28 12:33:57;;;;;;;6.75;6.00;;;4.90;99.90;;;;;;5017424;28;20254;-81
2020/12/28 12:36:32;;;;;;;5.90;5.30;;;5.00;99.90;;;;;;5017282;28;20207;-81
2020/12/28 12:39:08;;;;;;;6.32;5.72;;;5.10;99.90;;;;;;5017754;28;20183;-82
2020/12/28 12:41:41;;;;;;;7.10;5.63;;;5.00;99.90;;;;;;5017547;28;20187;-81
2020/12/28 12:44:22;;;;;;;12.63;6.22;;;5.10;99.90;;;;;;5017398;28;20235;-81
2020/12/28 12:46:50;;;;;;;8.43;6.68;;;5.20;99.90;;;;;;5017110;28;20214;-81
2020/12/28 12:49:21;;;;;;;8.20;6.75;;;5.20;99.90;;;;;;5017236;28;20216;-81
2020/12/28 12:52:10;;;;;;;7.53;6.15;;;5.20;99.90;;;;;;5018014;28;20208;-82
2020/12/28 12:54:40;;;;;;;7.00;5.90;;;5.30;99.90;;;;;;5023407;28;20316;-81
2020/12/28 12:57:10;;;;;;;7.20;6.45;;;5.30;99.90;;;;;;5031190;28;20235;-81
2020/12/28 13:00:03;;;;;;;8.82;6.95;;;5.20;99.90;;;;;;5018052;28;20540;-81
2020/12/28 13:02:45;;;;;;;6.25;5.65;;;5.30;99.90;;;;;;5017931;28;20227;-81
2020/12/28 13:05:19;;;;;;;8.30;6.95;;;5.30;99.90;;;;;;5017877;28;20199;-81
2020/12/28 13:07:48;;;;;;;8.50;6.55;;;5.20;99.90;;;;;;5017377;28;20450;-81